»·PEaware :: AAL225 KPDX-KSEA

AAL225 :: KPDX-KSEA

FLIGHT INFORMATION

Flight Status: Arrived
Operator:
American Airlines
More flights by this operator :: More flights under this callsign
Pilot: Michael R. (16974)
Aircraft: AIRBUS A320
(A320)
More flights by this aircraft type
Origin: KPDX Portland Intl
United States
Destination: KSEA Seattle-Tacoma Intl
United States
More flights between these airports :: More routes between these airports
Route: +PTLD1 COUGA KRIEG HAWKZ6
File this flight plan on PilotEdge
Remarks:
Altitude:
(Current/Filed)
20,000ft
Speed:
(Current/Filed)
428kts
Departed: 26-Jul-18 08:45 PM
Arrived: 26-Jul-18 09:15 PM
Distance/Time
Traveled:
666nm/0:30
Distance/Time
To Go:
Arrived

Flight Plot

Page will automatically refresh every two minutes.

Flight plan parsing failed; only flown route is shown


Map Options




Map Legend


Flown Route
Filed Route
Departure Airport
Arrival Airport
Navaid (VOR, NDB)
Fix

Horizontal Profiles

Position Reports

Time Latitude Longitude Heading Altitude Ground
Speed
26-Jul-18 20:23 45.588636 -122.596933 5 38ft 0kts
26-Jul-18 20:24 45.588636 -122.596933 5 38ft 0kts
26-Jul-18 20:25 45.588636 -122.596933 5 38ft 0kts
26-Jul-18 20:26 45.588636 -122.596933 5 38ft 0kts
26-Jul-18 20:27 45.588636 -122.596933 5 38ft 0kts
26-Jul-18 20:28 45.588636 -122.596933 5 38ft 0kts
26-Jul-18 20:29 45.588636 -122.596933 5 38ft 0kts
26-Jul-18 20:30 45.588636 -122.596933 5 38ft 0kts
26-Jul-18 20:31 45.588636 -122.596933 5 38ft 0kts
26-Jul-18 20:32 45.588636 -122.596933 5 38ft 0kts
26-Jul-18 20:33 45.588636 -122.596933 5 38ft 0kts
26-Jul-18 20:34 45.588636 -122.596933 5 38ft 0kts
26-Jul-18 20:35 45.588636 -122.596933 5 38ft 0kts
26-Jul-18 20:36 45.588636 -122.596933 5 38ft 0kts
26-Jul-18 20:37 45.588635 -122.596933 5 38ft 0kts
26-Jul-18 20:38 45.588568 -122.596943 5 38ft 2kts
26-Jul-18 20:39 45.588004 -122.597137 49 38ft 2kts
26-Jul-18 20:40 45.587982 -122.597718 118 38ft 0kts
26-Jul-18 20:41 45.587981 -122.597717 118 38ft 0kts
26-Jul-18 20:42 45.587981 -122.597717 118 38ft 0kts
26-Jul-18 20:43 45.586978 -122.595066 120 38ft 15kts
26-Jul-18 20:44 45.583743 -122.588917 118 38ft 23kts
26-Jul-18 20:45 45.581909 -122.584155 121 38ft 3kts
26-Jul-18 20:46 45.581731 -122.587040 298 38ft 43kts
26-Jul-18 20:47 45.603621 -122.643396 298 2305ft 209kts
26-Jul-18 20:48 45.638564 -122.725537 322 5504ft 272kts
26-Jul-18 20:49 45.714063 -122.731745 2 9412ft 291kts
26-Jul-18 20:50 45.801513 -122.719694 3 11729ft 357kts
26-Jul-18 20:51 45.908731 -122.700901 4 13291ft 410kts
26-Jul-18 20:52 46.016973 -122.685956 1 15515ft 421kts
26-Jul-18 20:53 46.121745 -122.683396 349 17384ft 428kts
26-Jul-18 20:54 46.216270 -122.702194 349 18864ft 437kts
26-Jul-18 20:55 46.322622 -122.722058 352 20100ft 442kts
26-Jul-18 20:56 46.447537 -122.727184 355 20139ft 453kts
26-Jul-18 20:57 46.571215 -122.731662 355 20140ft 453kts
26-Jul-18 20:58 46.692926 -122.736080 355 19193ft 425kts
26-Jul-18 20:59 46.798806 -122.721698 31 18262ft 383kts
26-Jul-18 21:00 46.878310 -122.629780 34 16681ft 361kts
26-Jul-18 21:01 46.956533 -122.554255 14 14644ft 316kts
26-Jul-18 21:02 47.039371 -122.518125 15 13135ft 310kts
26-Jul-18 21:03 47.119428 -122.493408 5 11684ft 303kts
26-Jul-18 21:04 47.186188 -122.481141 5 10480ft 298kts
26-Jul-18 21:05 47.246984 -122.471600 4 9414ft 292kts
26-Jul-18 21:06 47.306605 -122.462557 4 8400ft 277kts
26-Jul-18 21:07 47.387993 -122.455670 358 7518ft 253kts
26-Jul-18 21:08 47.459085 -122.455648 358 6104ft 263kts
26-Jul-18 21:09 47.529626 -122.451399 0 4614ft 270kts
26-Jul-18 21:10 47.590706 -122.447268 0 3365ft 256kts
26-Jul-18 21:11 47.626709 -122.386014 89 3188ft 230kts
26-Jul-18 21:12 47.622488 -122.294464 119 3192ft 230kts
26-Jul-18 21:13 47.571121 -122.285049 207 2697ft 233kts
26-Jul-18 21:14 47.508435 -122.310151 183 1337ft 241kts
26-Jul-18 21:15 47.451626 -122.311097 180 442ft 141kts
26-Jul-18 21:16 47.439019 -122.307624 94 442ft 22kts
26-Jul-18 21:17 47.442654 -122.303962 134 442ft 4kts
26-Jul-18 21:18 47.442154 -122.303193 134 442ft 5kts
26-Jul-18 21:19 47.440692 -122.300964 134 442ft 10kts
26-Jul-18 21:20 47.437993 -122.297078 137 442ft 16kts
26-Jul-18 21:21 47.437361 -122.296228 138 442ft 0kts
26-Jul-18 21:22 47.437361 -122.296228 138 442ft 0kts
26-Jul-18 21:23 47.437361 -122.296228 138 442ft 0kts
26-Jul-18 21:24 47.437361 -122.296228 138 442ft 0kts
26-Jul-18 21:25 34.942853 -119.690287 204 2206ft 0kts
26-Jul-18 21:26 34.942853 -119.690287 204 2206ft 0kts
26-Jul-18 21:27 34.942852 -119.690287 204 2206ft 0kts
26-Jul-18 21:28 34.704103 -119.861608 230 4761ft 68kts
26-Jul-18 21:29 34.689148 -119.879396 235 5611ft 89kts
26-Jul-18 21:30 34.682787 -119.904497 261 6200ft 62kts

Navigation Log

Ident Type
Flight plan parsing failed, navigation log unavailable